createdAt,value
2018-05-16T00:00:30.850Z,91.60
2018-05-16T00:02:58.392Z,91.70
2018-05-16T00:05:25.889Z,91.70
2018-05-16T00:07:55.928Z,91.80
2018-05-16T00:10:23.423Z,92.20
2018-05-16T00:12:50.969Z,92.20
2018-05-16T00:15:18.470Z,92.30
2018-05-16T00:17:46.003Z,92.00
2018-05-16T00:20:13.507Z,92.10
2018-05-16T00:22:41.018Z,92.10
2018-05-16T00:25:08.563Z,92.00
2018-05-16T00:27:36.058Z,91.80
2018-05-16T00:30:04.359Z,91.80
2018-05-16T00:32:31.862Z,91.80
2018-05-16T00:35:00.206Z,91.80
2018-05-16T00:37:27.702Z,91.80
2018-05-16T00:39:55.247Z,91.80
2018-05-16T00:42:22.742Z,91.80
2018-05-16T00:44:50.286Z,91.80
2018-05-16T00:47:17.807Z,91.80
2018-05-16T00:49:45.348Z,92.10
2018-05-16T00:52:12.854Z,91.80
2018-05-16T00:54:40.363Z,91.80
2018-05-16T00:57:07.903Z,91.80
2018-05-16T00:59:35.407Z,91.80
2018-05-16T01:02:03.717Z,90.90
2018-05-16T01:04:31.224Z,90.30
2018-05-16T01:06:58.771Z,90.50
2018-05-16T01:09:26.267Z,90.50
2018-05-16T01:11:53.801Z,90.40
2018-05-16T01:14:21.298Z,90.30
2018-05-16T01:16:48.844Z,90.80
2018-05-16T01:19:16.346Z,90.10
2018-05-16T01:21:44.643Z,90.00
2018-05-16T01:24:12.354Z,89.80
2018-05-16T01:26:39.897Z,90.20
2018-05-16T01:29:07.802Z,89.00
2018-05-16T01:31:35.349Z,90.00
2018-05-16T01:34:02.850Z,89.90
2018-05-16T01:36:30.402Z,90.60
2018-05-16T01:38:58.661Z,90.60
2018-05-16T01:41:26.930Z,91.10
2018-05-16T01:43:54.477Z,91.10
2018-05-16T01:46:22.313Z,90.80
2018-05-16T01:49:01.688Z,90.80
2018-05-16T01:51:29.238Z,91.10
2018-05-16T01:53:56.742Z,91.10
2018-05-16T01:56:24.235Z,91.40
2018-05-16T01:58:51.767Z,91.20
2018-05-16T02:01:19.270Z,91.50
2018-05-16T02:03:46.813Z,91.70
2018-05-16T02:06:14.327Z,91.70
2018-05-16T02:08:42.913Z,91.00
2018-05-16T02:11:10.417Z,91.00
2018-05-16T02:13:37.919Z,91.00
2018-05-16T02:16:06.231Z,91.10
2018-05-16T02:18:33.731Z,91.10
2018-05-16T02:21:01.277Z,91.30
2018-05-16T02:23:28.779Z,91.30
2018-05-16T02:25:57.074Z,91.20
2018-05-16T02:28:24.570Z,91.20
2018-05-16T02:30:52.108Z,91.00
2018-05-16T02:33:19.606Z,90.80
2018-05-16T02:35:47.147Z,91.30
2018-05-16T02:38:14.654Z,90.60
2018-05-16T02:40:42.205Z,91.00
2018-05-16T02:43:10.478Z,91.10
2018-05-16T02:45:38.791Z,91.80
2018-05-16T02:48:06.289Z,91.80
2018-05-16T02:50:33.831Z,91.60
2018-05-16T02:53:01.332Z,91.80
2018-05-16T02:55:29.634Z,91.80
2018-05-16T02:57:57.142Z,91.80
2018-05-16T03:00:24.702Z,91.80
2018-05-16T03:02:52.203Z,91.70
2018-05-16T03:05:19.706Z,91.00
2018-05-16T03:07:47.239Z,91.20
2018-05-16T03:10:14.742Z,91.50
2018-05-16T03:12:42.304Z,91.80
2018-05-16T03:15:09.801Z,91.80
2018-05-16T03:17:37.342Z,91.80
2018-05-16T03:20:05.611Z,91.80
2018-05-16T03:22:33.949Z,91.80
2018-05-16T03:25:01.639Z,91.80
2018-05-16T03:27:29.174Z,91.80
2018-05-16T03:29:56.670Z,91.80
2018-05-16T03:32:24.974Z,91.80
2018-05-16T03:34:52.474Z,91.80
2018-05-16T03:37:20.013Z,91.80
2018-05-16T03:39:47.527Z,91.80
2018-05-16T03:42:15.851Z,91.90
2018-05-16T03:44:43.371Z,91.80
2018-05-16T03:47:10.919Z,91.80
2018-05-16T03:49:39.204Z,92.90
2018-05-16T03:52:07.547Z,93.30
2018-05-16T03:54:35.028Z,93.30
2018-05-16T03:57:02.535Z,93.70
2018-05-16T03:59:51.809Z,94.10
2018-05-16T04:02:31.098Z,94.10
2018-05-16T04:04:59.362Z,94.40
2018-05-16T04:07:27.625Z,94.90
2018-05-16T04:09:55.200Z,94.80
2018-05-16T04:12:22.707Z,94.90
2018-05-16T04:14:50.234Z,94.60
2018-05-16T04:17:17.740Z,93.50
2018-05-16T04:19:45.274Z,92.30
2018-05-16T04:22:12.777Z,92.10
2018-05-16T04:24:40.322Z,92.60
2018-05-16T04:27:07.833Z,94.20
2018-05-16T04:29:35.421Z,94.20
2018-05-16T04:32:02.919Z,94.60
2018-05-16T04:34:30.467Z,94.90
2018-05-16T04:36:57.973Z,95.10
2018-05-16T04:39:25.527Z,95.20
2018-05-16T04:41:53.220Z,95.30
2018-05-16T04:44:20.784Z,96.70
2018-05-16T04:46:48.291Z,97.20
2018-05-16T04:49:15.799Z,97.60
2018-05-16T04:51:43.329Z,97.70
2018-05-16T04:54:10.836Z,98.20
2018-05-16T04:56:38.381Z,98.50
2018-05-16T04:59:05.886Z,98.50
2018-05-16T05:01:34.210Z,97.80
2018-05-16T05:04:01.712Z,97.80
2018-05-16T05:06:29.247Z,97.40
2018-05-16T05:08:56.802Z,97.60
2018-05-16T05:11:24.342Z,97.60
2018-05-16T05:13:51.851Z,97.90
2018-05-16T05:16:19.437Z,97.90
2018-05-16T05:18:46.996Z,98.00
2018-05-16T05:21:14.503Z,97.80
2018-05-16T05:23:42.008Z,98.00
2018-05-16T05:26:09.663Z,98.20
2018-05-16T05:28:37.179Z,97.80
2018-05-16T05:31:04.686Z,97.90
2018-05-16T05:33:32.247Z,98.10
2018-05-16T05:35:59.750Z,98.40
2018-05-16T05:38:27.294Z,97.50
2018-05-16T05:40:54.838Z,98.00
2018-05-16T05:43:22.449Z,97.40
2018-05-16T05:45:49.902Z,96.40
2018-05-16T05:48:17.448Z,97.20
2018-05-16T05:50:44.958Z,97.60
2018-05-16T05:53:12.499Z,97.40
2018-05-16T05:55:39.990Z,97.80
2018-05-16T05:58:07.522Z,96.90
2018-05-16T06:00:35.779Z,96.30
2018-05-16T06:03:03.315Z,96.20
2018-05-16T06:05:30.832Z,96.90
2018-05-16T06:07:58.375Z,96.90
2018-05-16T06:10:26.640Z,97.00
2018-05-16T06:12:54.972Z,97.20
2018-05-16T06:15:22.482Z,97.20
2018-05-16T06:17:49.991Z,97.20
2018-05-16T06:20:17.524Z,97.00
2018-05-16T06:22:45.031Z,97.10
2018-05-16T06:25:14.072Z,97.00
2018-05-16T06:27:41.578Z,97.00
2018-05-16T06:30:09.121Z,97.30
2018-05-16T06:32:36.638Z,97.40
2018-05-16T06:35:04.185Z,97.60
2018-05-16T06:37:31.682Z,97.60
2018-05-16T06:39:59.222Z,97.60
2018-05-16T06:42:26.722Z,97.50
2018-05-16T06:44:54.259Z,97.20
2018-05-16T06:47:21.766Z,95.50
2018-05-16T06:49:49.311Z,96.70
2018-05-16T06:52:16.806Z,96.30
2018-05-16T06:54:44.339Z,95.50
2018-05-16T06:57:11.844Z,95.60
2018-05-16T06:59:39.386Z,96.20
2018-05-16T07:02:06.894Z,95.30
2018-05-16T07:04:34.403Z,94.60
2018-05-16T07:07:01.950Z,94.90
2018-05-16T07:09:29.450Z,95.90
2018-05-16T07:11:56.987Z,95.80
2018-05-16T07:14:24.506Z,96.10
2018-05-16T07:16:52.051Z,95.90
2018-05-16T07:19:19.547Z,96.00
2018-05-16T07:21:47.854Z,95.50
2018-05-16T07:24:15.547Z,95.50
2018-05-16T07:26:43.159Z,95.90
2018-05-16T07:29:10.614Z,96.40
2018-05-16T07:31:39.402Z,95.90
2018-05-16T07:34:06.904Z,95.10
2018-05-16T07:36:34.451Z,95.30
2018-05-16T07:39:01.964Z,95.80
2018-05-16T07:41:30.279Z,95.70
2018-05-16T07:43:57.795Z,95.70
2018-05-16T07:46:26.068Z,96.10
2018-05-16T07:48:54.394Z,95.80
2018-05-16T07:51:21.900Z,95.70
2018-05-16T07:53:49.442Z,95.80
2018-05-16T07:56:16.948Z,96.10
2018-05-16T07:58:45.403Z,96.00
2018-05-16T08:01:13.658Z,96.20
2018-05-16T08:03:41.186Z,96.20
2018-05-16T08:06:08.687Z,94.40
2018-05-16T08:08:36.254Z,95.70
2018-05-16T08:11:04.528Z,95.50
2018-05-16T08:13:32.835Z,95.20
2018-05-16T08:16:00.386Z,95.20
2018-05-16T08:18:28.041Z,95.70
2018-05-16T08:20:55.559Z,95.30
2018-05-16T08:23:23.093Z,94.00
2018-05-16T08:25:50.598Z,94.80
2018-05-16T08:28:18.132Z,94.10
2018-05-16T08:30:45.698Z,95.20
2018-05-16T08:33:13.203Z,95.10
2018-05-16T08:35:40.759Z,95.00
2018-05-16T08:38:08.265Z,94.10
2018-05-16T08:40:35.806Z,94.40
2018-05-16T08:43:03.366Z,94.20
2018-05-16T08:45:30.996Z,93.90
2018-05-16T08:47:58.574Z,93.20
2018-05-16T08:50:26.055Z,93.00
2018-05-16T08:52:56.139Z,92.60
2018-05-16T08:55:23.739Z,93.10
2018-05-16T08:57:51.243Z,93.20
2018-05-16T09:00:18.803Z,92.60
2018-05-16T09:02:47.070Z,93.50
2018-05-16T09:05:15.350Z,92.60
2018-05-16T09:07:43.654Z,92.60
2018-05-16T09:10:11.171Z,92.60
2018-05-16T09:12:38.717Z,92.90
2018-05-16T09:15:06.232Z,92.60
2018-05-16T09:17:33.776Z,92.60
2018-05-16T09:20:01.282Z,92.60
2018-05-16T09:22:28.907Z,93.00
2018-05-16T09:24:56.518Z,92.70
2018-05-16T09:27:24.105Z,92.70
2018-05-16T09:29:52.377Z,92.30
2018-05-16T09:32:20.704Z,93.10
2018-05-16T09:34:48.220Z,93.10
2018-05-16T09:37:15.762Z,92.90
2018-05-16T09:39:44.029Z,93.20
2018-05-16T09:42:11.579Z,93.10
2018-05-16T09:44:39.104Z,92.70
2018-05-16T09:47:06.646Z,92.70
2018-05-16T09:49:34.152Z,92.60
2018-05-16T09:52:01.700Z,92.70
2018-05-16T09:54:30.022Z,93.10
2018-05-16T09:56:58.329Z,92.70
2018-05-16T09:59:25.835Z,92.70
2018-05-16T10:01:53.371Z,92.40
2018-05-16T10:04:20.867Z,92.80
2018-05-16T10:06:49.182Z,92.80
2018-05-16T10:09:16.680Z,92.70
2018-05-16T10:11:44.226Z,92.50
2018-05-16T10:14:11.777Z,92.30
2018-05-16T10:16:39.290Z,92.20
2018-05-16T10:19:06.880Z,92.50
2018-05-16T10:21:34.399Z,92.60
2018-05-16T10:24:01.946Z,92.60
2018-05-16T10:26:29.459Z,92.60
2018-05-16T10:28:56.999Z,92.40
2018-05-16T10:31:24.491Z,92.50
2018-05-16T10:33:52.042Z,92.20
2018-05-16T10:36:19.724Z,92.10
2018-05-16T10:38:47.079Z,91.90
2018-05-16T10:41:14.615Z,92.20
2018-05-16T10:43:42.118Z,91.50
2018-05-16T10:46:09.647Z,92.00
2018-05-16T10:48:37.916Z,91.30
2018-05-16T10:51:05.464Z,91.30
2018-05-16T10:53:32.966Z,91.60
2018-05-16T10:56:00.542Z,91.70
2018-05-16T10:58:28.811Z,92.00
2018-05-16T11:00:57.125Z,91.80
2018-05-16T11:03:24.700Z,91.80
2018-05-16T11:05:52.195Z,91.30
2018-05-16T11:08:19.702Z,91.40
2018-05-16T11:10:47.257Z,91.50
2018-05-16T11:13:14.763Z,91.60
2018-05-16T11:15:42.318Z,91.60
2018-05-16T11:18:09.846Z,92.00
2018-05-16T11:20:37.345Z,91.90
2018-05-16T11:23:04.883Z,92.10
2018-05-16T11:25:32.570Z,91.50
2018-05-16T11:28:00.110Z,91.50
2018-05-16T11:30:27.620Z,91.40
2018-05-16T11:32:55.911Z,91.30
2018-05-16T11:35:23.416Z,91.30
2018-05-16T11:37:50.967Z,91.20
2018-05-16T11:40:18.527Z,91.30
2018-05-16T11:42:46.058Z,90.60
2018-05-16T11:45:13.553Z,90.50
2018-05-16T11:47:41.091Z,90.40
2018-05-16T11:50:08.591Z,89.90
2018-05-16T11:52:36.970Z,90.00
2018-05-16T11:55:05.250Z,88.90
2018-05-16T11:57:33.558Z,88.40
2018-05-16T12:00:01.057Z,88.30
2018-05-16T12:02:29.199Z,87.60
2018-05-16T12:04:57.478Z,87.70
2018-05-16T12:07:25.010Z,87.70
2018-05-16T12:09:52.527Z,88.40
2018-05-16T12:12:20.061Z,88.90
2018-05-16T12:14:47.680Z,88.80
2018-05-16T12:17:15.161Z,88.60
2018-05-16T12:19:42.673Z,86.80
2018-05-16T12:22:10.201Z,86.30
2018-05-16T12:24:37.715Z,86.30
2018-05-16T12:27:05.265Z,86.30
2018-05-16T12:29:33.523Z,86.30
2018-05-16T12:32:01.074Z,86.20
2018-05-16T12:34:28.798Z,85.00
2018-05-16T12:36:56.351Z,86.10
2018-05-16T12:39:23.861Z,86.10
2018-05-16T12:41:51.431Z,86.00
2018-05-16T12:44:18.940Z,85.90
2018-05-16T12:46:46.451Z,87.00
2018-05-16T12:49:14.125Z,87.60
2018-05-16T12:51:41.630Z,86.50
2018-05-16T12:54:09.164Z,88.20
2018-05-16T12:56:36.671Z,87.50
2018-05-16T12:59:04.211Z,87.00
2018-05-16T13:01:31.798Z,86.90
2018-05-16T13:03:59.277Z,83.80
2018-05-16T13:06:26.775Z,84.30
2018-05-16T13:08:54.318Z,85.20
2018-05-16T13:11:21.818Z,81.90
2018-05-16T13:13:49.355Z,80.60
2018-05-16T13:16:16.908Z,78.70
2018-05-16T13:18:44.442Z,77.60
2018-05-16T13:21:11.951Z,75.80
2018-05-16T13:23:39.484Z,73.20
2018-05-16T13:26:07.036Z,73.60
2018-05-16T13:28:34.539Z,72.20
2018-05-16T13:31:02.104Z,69.80
2018-05-16T13:33:29.639Z,67.10
2018-05-16T13:35:57.156Z,65.40
2018-05-16T13:38:24.704Z,68.50
2018-05-16T13:40:52.213Z,67.70
2018-05-16T13:43:19.766Z,68.50
2018-05-16T13:45:47.277Z,68.10
2018-05-16T13:48:14.833Z,69.60
2018-05-16T13:50:43.096Z,72.40
2018-05-16T13:53:11.399Z,74.10
2018-05-16T13:55:38.909Z,73.80
2018-05-16T13:58:06.470Z,76.40
2018-05-16T14:00:34.001Z,78.90
2018-05-16T14:03:01.511Z,78.60
2018-05-16T14:05:29.278Z,79.60
2018-05-16T14:07:57.550Z,81.20
2018-05-16T14:10:25.978Z,81.50
2018-05-16T14:12:53.696Z,82.00
2018-05-16T14:15:21.257Z,81.90
2018-05-16T14:17:48.828Z,82.10
2018-05-16T14:20:17.152Z,87.80
2018-05-16T14:22:44.656Z,87.70
2018-05-16T14:25:12.199Z,89.40
2018-05-16T14:27:39.713Z,89.30
2018-05-16T14:30:07.274Z,86.50
2018-05-16T14:32:34.786Z,85.70
2018-05-16T14:35:03.052Z,85.90
2018-05-16T14:37:30.607Z,85.90
2018-05-16T14:39:58.167Z,86.30
2018-05-16T14:42:25.667Z,88.30
2018-05-16T14:44:53.188Z,88.30
2018-05-16T14:47:20.742Z,88.20
2018-05-16T14:49:48.252Z,90.00
2018-05-16T14:52:15.821Z,89.40
2018-05-16T14:54:43.346Z,89.30
2018-05-16T14:57:12.363Z,91.40
2018-05-16T14:59:39.880Z,91.40
2018-05-16T15:02:07.432Z,92.90
2018-05-16T15:04:35.158Z,94.20
2018-05-16T15:07:02.711Z,94.70
2018-05-16T15:09:30.335Z,94.70
2018-05-16T15:11:58.610Z,95.50
2018-05-16T15:14:26.932Z,96.00
2018-05-16T15:16:54.427Z,96.00
2018-05-16T15:19:21.972Z,96.00
2018-05-16T15:21:49.489Z,96.00
2018-05-16T15:24:17.054Z,95.90
2018-05-16T15:26:44.577Z,95.60
2018-05-16T15:29:12.898Z,94.80
2018-05-16T15:31:40.418Z,94.80
2018-05-16T15:34:08.025Z,95.80
2018-05-16T15:36:35.563Z,96.10
2018-05-16T15:39:03.092Z,96.50
2018-05-16T15:41:31.407Z,97.20
2018-05-16T15:43:59.071Z,97.20
2018-05-16T15:46:26.691Z,97.50
2018-05-16T15:48:55.734Z,98.30
2018-05-16T15:51:23.350Z,98.30
2018-05-16T15:53:51.614Z,99.20
2018-05-16T15:56:19.197Z,99.20
2018-05-16T15:58:47.455Z,99.90
2018-05-16T16:01:14.959Z,99.90
2018-05-16T16:03:42.499Z,99.90
2018-05-16T16:06:10.039Z,99.90
2018-05-16T16:08:38.315Z,99.90
2018-05-16T16:11:06.626Z,99.90
2018-05-16T16:13:34.130Z,99.90
2018-05-16T16:16:01.674Z,99.90
2018-05-16T16:18:29.173Z,99.90
2018-05-16T16:20:57.496Z,99.90
2018-05-16T16:23:25.040Z,99.90
2018-05-16T16:25:52.716Z,99.90
2018-05-16T16:28:20.244Z,99.90
2018-05-16T16:30:47.796Z,99.90
2018-05-16T16:33:15.300Z,99.90
2018-05-16T16:35:42.819Z,99.90
2018-05-16T16:38:10.415Z,99.90
2018-05-16T16:40:37.922Z,99.90
2018-05-16T16:43:06.231Z,99.90
2018-05-16T16:45:33.768Z,99.90
2018-05-16T16:48:01.359Z,99.90
2018-05-16T16:50:28.896Z,99.90
2018-05-16T16:52:56.435Z,99.90
2018-05-16T16:55:24.695Z,99.90
2018-05-16T16:57:52.251Z,99.90
2018-05-16T17:00:19.758Z,99.90
2018-05-16T17:02:47.310Z,99.90
2018-05-16T17:05:14.821Z,99.90
2018-05-16T17:07:42.358Z,99.90
2018-05-16T17:10:09.880Z,99.90
2018-05-16T17:12:38.203Z,99.90
2018-05-16T17:15:05.896Z,99.90
2018-05-16T17:17:33.438Z,99.90
2018-05-16T17:20:00.946Z,99.90
2018-05-16T17:22:28.503Z,99.90
2018-05-16T17:24:56.011Z,99.90
2018-05-16T17:27:23.563Z,99.90
2018-05-16T17:29:51.061Z,99.90
2018-05-16T17:32:18.599Z,99.90
2018-05-16T17:34:46.903Z,99.90
2018-05-16T17:37:15.307Z,99.90
2018-05-16T17:39:42.830Z,99.90
2018-05-16T17:42:11.246Z,99.90
2018-05-16T17:44:38.758Z,99.90
2018-05-16T17:47:06.293Z,99.90
2018-05-16T17:49:33.807Z,99.90
2018-05-16T17:52:01.384Z,99.90
2018-05-16T17:54:28.943Z,99.90
2018-05-16T17:56:56.465Z,99.90
2018-05-16T17:59:24.788Z,99.90
2018-05-16T18:01:52.347Z,99.90
2018-05-16T18:04:19.884Z,99.90
2018-05-16T18:06:47.402Z,99.90
2018-05-16T18:09:15.737Z,99.90
2018-05-16T18:11:43.293Z,99.90
2018-05-16T18:14:22.632Z,99.90
2018-05-16T18:17:02.076Z,99.90
2018-05-16T18:19:29.575Z,99.90
2018-05-16T18:21:57.148Z,99.90
2018-05-16T18:24:24.753Z,99.90
2018-05-16T18:26:52.377Z,99.90
2018-05-16T18:29:20.666Z,99.90
2018-05-16T18:31:48.179Z,99.90
2018-05-16T18:34:15.739Z,99.90
2018-05-16T18:36:43.244Z,99.90
2018-05-16T18:39:10.786Z,99.90
2018-05-16T18:41:39.176Z,99.90
2018-05-16T18:44:07.521Z,99.90
2018-05-16T18:46:35.031Z,99.90
2018-05-16T18:49:02.573Z,99.90
2018-05-16T18:51:30.087Z,99.90
2018-05-16T18:53:57.634Z,99.90
2018-05-16T18:56:25.155Z,99.90
2018-05-16T18:58:52.705Z,99.90
2018-05-16T19:01:20.223Z,99.90
2018-05-16T19:03:47.874Z,99.90
2018-05-16T19:06:15.406Z,99.90
2018-05-16T19:08:42.964Z,99.90
2018-05-16T19:11:10.510Z,99.90
2018-05-16T19:13:38.017Z,99.90
2018-05-16T19:16:05.557Z,99.90
2018-05-16T19:18:33.957Z,99.90
2018-05-16T19:21:01.821Z,99.90
2018-05-16T19:23:29.923Z,99.90
2018-05-16T19:25:57.594Z,99.90
2018-05-16T19:28:25.103Z,99.90
2018-05-16T19:30:52.700Z,99.90
2018-05-16T19:33:20.543Z,99.90
2018-05-16T19:35:48.114Z,99.90
2018-05-16T19:38:15.640Z,99.90
2018-05-16T19:40:43.950Z,99.90
2018-05-16T19:43:11.763Z,99.90
2018-05-16T19:45:39.319Z,99.90
2018-05-16T19:48:06.830Z,99.90
2018-05-16T19:50:34.374Z,99.90
2018-05-16T19:53:01.932Z,99.90
2018-05-16T19:55:29.473Z,99.90
2018-05-16T19:57:57.005Z,99.90
2018-05-16T20:00:24.537Z,99.90
2018-05-16T20:02:52.879Z,99.90
2018-05-16T20:05:20.380Z,99.90
2018-05-16T20:07:47.969Z,99.90
2018-05-16T20:10:15.486Z,99.90
2018-05-16T20:12:43.028Z,99.90
2018-05-16T20:15:10.610Z,99.90
2018-05-16T20:17:39.235Z,99.90
2018-05-16T20:20:06.763Z,99.90
2018-05-16T20:22:34.311Z,99.90
2018-05-16T20:25:01.810Z,99.90
2018-05-16T20:27:29.354Z,99.90
2018-05-16T20:29:56.870Z,99.90
2018-05-16T20:32:24.419Z,99.90
2018-05-16T20:34:51.932Z,99.90
2018-05-16T20:37:19.466Z,99.90
2018-05-16T20:39:46.976Z,99.90
2018-05-16T20:42:14.519Z,99.90
2018-05-16T20:44:42.014Z,99.90
2018-05-16T20:47:09.546Z,99.90
2018-05-16T20:49:37.054Z,99.90
2018-05-16T20:52:06.109Z,99.90
2018-05-16T20:54:33.601Z,99.90
2018-05-16T20:57:01.144Z,99.90
2018-05-16T20:59:28.661Z,99.90
2018-05-16T21:01:56.184Z,99.90
2018-05-16T21:04:23.762Z,99.90
2018-05-16T21:06:52.038Z,99.90
2018-05-16T21:09:20.341Z,99.90
2018-05-16T21:11:47.842Z,99.90
2018-05-16T21:14:15.383Z,99.90
2018-05-16T21:16:42.892Z,99.90
2018-05-16T21:19:11.218Z,99.90
2018-05-16T21:21:38.710Z,99.90
2018-05-16T21:24:06.228Z,99.90
2018-05-16T21:26:33.770Z,99.90
2018-05-16T21:29:01.270Z,99.90
2018-05-16T21:31:28.815Z,99.90
2018-05-16T21:33:56.341Z,99.90
2018-05-16T21:36:23.880Z,99.90
2018-05-16T21:38:51.370Z,99.90
2018-05-16T21:41:18.907Z,99.90
2018-05-16T21:43:47.178Z,99.90
2018-05-16T21:46:15.481Z,99.90
2018-05-16T21:48:42.986Z,99.90
2018-05-16T21:51:10.537Z,99.90
2018-05-16T21:53:38.054Z,99.90
2018-05-16T21:56:05.643Z,99.90
2018-05-16T21:58:33.145Z,99.90
2018-05-16T22:01:01.447Z,99.90
2018-05-16T22:03:29.188Z,99.90
2018-05-16T22:05:56.749Z,99.90
2018-05-16T22:08:24.264Z,99.90
2018-05-16T22:10:51.802Z,99.90
2018-05-16T22:13:19.315Z,99.90
2018-05-16T22:15:47.626Z,99.90
2018-05-16T22:18:15.122Z,99.90
2018-05-16T22:20:42.671Z,99.90
2018-05-16T22:23:10.187Z,99.90
2018-05-16T22:25:37.874Z,99.90
2018-05-16T22:28:05.408Z,99.90
2018-05-16T22:30:38.708Z,99.90
2018-05-16T22:33:11.996Z,99.90
2018-05-16T22:35:45.223Z,99.90
2018-05-16T22:38:18.399Z,99.90
2018-05-16T22:40:51.518Z,99.90
2018-05-16T22:43:19.088Z,99.90
2018-05-16T22:46:03.123Z,99.90
2018-05-16T22:48:30.666Z,99.90
2018-05-16T22:50:58.170Z,99.90
2018-05-16T22:53:25.675Z,99.90
2018-05-16T22:55:53.206Z,99.90
2018-05-16T22:58:20.743Z,99.90
2018-05-16T23:00:51.835Z,99.90
2018-05-16T23:03:19.363Z,99.90
2018-05-16T23:05:46.860Z,99.90
2018-05-16T23:08:14.363Z,99.90
2018-05-16T23:10:42.034Z,99.90
2018-05-16T23:13:09.532Z,99.90
2018-05-16T23:15:37.067Z,99.90
2018-05-16T23:18:04.562Z,99.90
2018-05-16T23:20:32.102Z,99.90
2018-05-16T23:22:59.610Z,99.90
2018-05-16T23:25:27.147Z,99.90
2018-05-16T23:27:55.573Z,99.90
2018-05-16T23:30:23.120Z,99.90
2018-05-16T23:32:50.610Z,99.90
2018-05-16T23:35:18.168Z,99.90
2018-05-16T23:37:45.680Z,99.90
2018-05-16T23:40:13.182Z,99.90
2018-05-16T23:42:40.722Z,99.90
2018-05-16T23:45:08.992Z,99.90
2018-05-16T23:47:37.299Z,99.90
2018-05-16T23:50:04.803Z,99.90
2018-05-16T23:52:33.852Z,99.90
2018-05-16T23:55:01.351Z,99.90
2018-05-16T23:57:28.887Z,99.90
2018-05-16T23:59:56.398Z,99.90
